createdAt,value
2022-11-05T00:00:17.186Z,101631.25
2022-11-05T00:03:01.885Z,101626.03
2022-11-05T00:05:47.209Z,101611.81
2022-11-05T00:08:32.680Z,101626.41
2022-11-05T00:10:59.218Z,101629.34
2022-11-05T00:13:44.035Z,101615.13
2022-11-05T00:16:28.835Z,101622.50
2022-11-05T00:19:21.239Z,101625.47
2022-11-05T00:22:06.129Z,101635.00
2022-11-05T00:24:50.737Z,101636.09
2022-11-05T00:27:17.053Z,101641.16
2022-11-05T00:29:43.344Z,101642.75
2022-11-05T00:32:09.661Z,101645.69
2022-11-05T00:34:36.031Z,101645.19
2022-11-05T00:37:02.330Z,101644.47
2022-11-05T00:39:28.630Z,101659.00
2022-11-05T00:42:13.596Z,101651.91
2022-11-05T00:44:58.904Z,101660.09
2022-11-05T00:47:57.340Z,101665.19
2022-11-05T00:50:24.504Z,101677.31
2022-11-05T00:52:55.415Z,101677.06
2022-11-05T00:55:48.866Z,101682.34
2022-11-05T00:58:17.465Z,101684.44
2022-11-05T01:00:48.327Z,101675.22
2022-11-05T01:03:16.482Z,101687.34
2022-11-05T01:05:45.144Z,101690.78
2022-11-05T01:08:12.557Z,101692.13
2022-11-05T01:10:44.121Z,101690.00
2022-11-05T01:13:13.171Z,101691.31
2022-11-05T01:15:40.712Z,101692.91
2022-11-05T01:18:07.514Z,101701.09
2022-11-05T01:20:33.972Z,101701.09
2022-11-05T01:23:00.342Z,101697.91
2022-11-05T01:25:27.026Z,101697.91
2022-11-05T01:27:53.424Z,101700.28
2022-11-05T01:30:19.857Z,101700.00
2022-11-05T01:32:46.231Z,101695.78
2022-11-05T01:35:14.860Z,101696.31
2022-11-05T01:37:41.501Z,101706.31
2022-11-05T01:40:11.666Z,101704.75
2022-11-05T01:42:38.000Z,101707.38
2022-11-05T01:45:26.609Z,101708.19
2022-11-05T01:47:58.872Z,101704.47
2022-11-05T01:51:02.481Z,101717.91
2022-11-05T01:53:53.455Z,101712.63
2022-11-05T01:56:45.408Z,101710.53
2022-11-05T01:59:16.297Z,101703.13
2022-11-05T02:01:42.686Z,101701.28
2022-11-05T02:04:14.790Z,101695.19
2022-11-05T02:06:46.617Z,101694.97
2022-11-05T02:09:19.870Z,101696.81
2022-11-05T02:11:46.710Z,101689.41
2022-11-05T02:14:13.021Z,101682.56
2022-11-05T02:16:48.765Z,101687.06
2022-11-05T02:20:03.788Z,101683.38
2022-11-05T02:22:42.332Z,101686.56
2022-11-05T02:25:23.822Z,101679.94
2022-11-05T02:28:27.731Z,101682.34
2022-11-05T02:30:57.929Z,101681.56
2022-11-05T02:33:48.343Z,101668.09
2022-11-05T02:36:39.394Z,101688.41
2022-11-05T02:39:42.866Z,101689.97
2022-11-05T02:42:42.920Z,101684.94
2022-11-05T02:45:34.353Z,101689.94
2022-11-05T02:48:23.432Z,101682.56
2022-11-05T02:51:08.346Z,101686.53
2022-11-05T02:54:02.578Z,101682.31
2022-11-05T02:56:32.580Z,101676.75
2022-11-05T02:58:58.881Z,101678.38
2022-11-05T03:01:25.483Z,101679.16
2022-11-05T03:03:55.710Z,101678.38
2022-11-05T03:06:42.125Z,101676.75
2022-11-05T03:09:41.801Z,101676.53
2022-11-05T03:12:29.912Z,101679.94
2022-11-05T03:15:15.009Z,101679.41
2022-11-05T03:17:55.393Z,101685.72
2022-11-05T03:20:30.366Z,101679.66
2022-11-05T03:23:24.845Z,101683.84
2022-11-05T03:26:12.356Z,101678.34
2022-11-05T03:28:43.016Z,101685.97
2022-11-05T03:31:14.100Z,101680.97
2022-11-05T03:33:43.025Z,101688.31
2022-11-05T03:36:19.219Z,101691.50
2022-11-05T03:38:50.134Z,101695.19
2022-11-05T03:41:18.353Z,101692.56
2022-11-05T03:43:49.868Z,101685.41
2022-11-05T03:46:21.371Z,101687.25
2022-11-05T03:48:52.717Z,101682.00
2022-11-05T03:51:37.846Z,101687.25
2022-11-05T03:54:05.057Z,101689.09
2022-11-05T03:56:45.177Z,101696.75
2022-11-05T03:59:12.548Z,101698.31
2022-11-05T04:01:41.472Z,101701.75
2022-11-05T04:04:09.592Z,101704.16
2022-11-05T04:06:54.827Z,101700.97
2022-11-05T04:09:39.462Z,101704.16
2022-11-05T04:12:44.542Z,101701.75
2022-11-05T04:15:10.883Z,101706.78
2022-11-05T04:17:37.372Z,101708.38
2022-11-05T04:20:22.423Z,101707.81
2022-11-05T04:23:07.167Z,101709.91
2022-11-05T04:25:33.981Z,101709.41
2022-11-05T04:28:00.599Z,101705.47
2022-11-05T04:30:27.546Z,101714.19
2022-11-05T04:32:59.111Z,101710.25
2022-11-05T04:35:26.340Z,101712.63
2022-11-05T04:37:52.856Z,101710.28
2022-11-05T04:40:19.239Z,101710.81
2022-11-05T04:42:45.586Z,101713.97
2022-11-05T04:45:12.082Z,101715.06
2022-11-05T04:47:38.465Z,101720.59
2022-11-05T04:50:05.185Z,101710.84
2022-11-05T04:52:31.483Z,101713.75
2022-11-05T04:54:57.998Z,101723.50
2022-11-05T04:57:24.310Z,101730.09
2022-11-05T04:59:51.888Z,101724.84
2022-11-05T05:02:18.297Z,101722.19
2022-11-05T05:04:44.885Z,101723.00
2022-11-05T05:07:11.181Z,101718.22
2022-11-05T05:09:37.527Z,101720.09
2022-11-05T05:12:03.947Z,101721.16
2022-11-05T05:14:30.262Z,101717.97
2022-11-05T05:16:56.668Z,101718.47
2022-11-05T05:19:24.602Z,101717.19
2022-11-05T05:21:50.893Z,101716.66
2022-11-05T05:24:19.414Z,101723.78
2022-11-05T05:26:50.834Z,101721.69
2022-11-05T05:29:18.416Z,101728.53
2022-11-05T05:31:45.344Z,101716.91
2022-11-05T05:34:13.308Z,101716.91
2022-11-05T05:36:39.685Z,101708.72
2022-11-05T05:39:07.577Z,101722.75
2022-11-05T05:41:34.153Z,101730.09
2022-11-05T05:44:00.453Z,101729.59
2022-11-05T05:46:26.780Z,101732.22
2022-11-05T05:48:53.086Z,101726.94
2022-11-05T05:51:19.671Z,101742.25
2022-11-05T05:53:46.203Z,101734.31
2022-11-05T05:56:14.889Z,101741.16
2022-11-05T05:58:41.266Z,101737.72
2022-11-05T06:01:15.585Z,101742.22
2022-11-05T06:03:44.934Z,101742.22
2022-11-05T06:06:13.178Z,101744.59
2022-11-05T06:08:40.251Z,101748.56
2022-11-05T06:11:07.569Z,101756.72
2022-11-05T06:13:34.429Z,101755.69
2022-11-05T06:16:02.420Z,101755.69
2022-11-05T06:18:32.249Z,101751.19
2022-11-05T06:21:05.987Z,101758.03
2022-11-05T06:23:37.251Z,101754.88
2022-11-05T06:26:09.543Z,101759.09
2022-11-05T06:28:36.193Z,101760.16
2022-11-05T06:31:02.681Z,101757.78
2022-11-05T06:33:29.632Z,101756.44
2022-11-05T06:35:59.430Z,101753.53
2022-11-05T06:38:25.742Z,101755.41
2022-11-05T06:40:52.079Z,101758.31
2022-11-05T06:43:18.382Z,101763.84
2022-11-05T06:45:44.722Z,101761.22
2022-11-05T06:48:11.057Z,101761.75
2022-11-05T06:50:37.387Z,101759.13
2022-11-05T06:53:04.769Z,101766.00
2022-11-05T06:55:31.710Z,101767.59
2022-11-05T06:57:58.120Z,101772.34
2022-11-05T07:00:24.950Z,101776.56
2022-11-05T07:02:51.298Z,101775.50
2022-11-05T07:05:17.656Z,101785.00
2022-11-05T07:07:45.271Z,101781.84
2022-11-05T07:10:16.834Z,101781.59
2022-11-05T07:12:43.882Z,101787.66
2022-11-05T07:15:12.105Z,101788.16
2022-11-05T07:17:39.705Z,101792.94
2022-11-05T07:20:08.034Z,101785.81
2022-11-05T07:22:35.463Z,101790.81
2022-11-05T07:25:01.819Z,101791.59
2022-11-05T07:27:28.365Z,101797.66
2022-11-05T07:29:54.679Z,101786.88
2022-11-05T07:32:20.993Z,101784.00
2022-11-05T07:34:47.357Z,101789.53
2022-11-05T07:37:16.471Z,101792.16
2022-11-05T07:39:43.012Z,101790.28
2022-11-05T07:42:13.376Z,101795.03
2022-11-05T07:44:39.841Z,101797.16
2022-11-05T07:47:06.182Z,101793.44
2022-11-05T07:49:32.543Z,101802.44
2022-11-05T07:51:58.863Z,101794.72
2022-11-05T07:54:26.542Z,101800.25
2022-11-05T07:56:53.028Z,101801.25
2022-11-05T07:59:19.590Z,101806.03
2022-11-05T08:01:46.114Z,101801.19
2022-11-05T08:04:12.623Z,101801.78
2022-11-05T08:06:39.041Z,101802.84
2022-11-05T08:09:05.559Z,101802.31
2022-11-05T08:11:32.178Z,101801.25
2022-11-05T08:13:58.559Z,101798.34
2022-11-05T08:16:24.914Z,101810.50
2022-11-05T08:18:51.214Z,101802.28
2022-11-05T08:21:17.547Z,101799.91
2022-11-05T08:23:43.899Z,101794.84
2022-11-05T08:26:10.189Z,101796.94
2022-11-05T08:28:36.697Z,101799.81
2022-11-05T08:31:03.033Z,101792.88
2022-11-05T08:33:31.235Z,101795.44
2022-11-05T08:36:02.177Z,101800.28
2022-11-05T08:38:28.504Z,101789.22
2022-11-05T08:40:57.510Z,101789.34
2022-11-05T08:43:24.397Z,101793.38
2022-11-05T08:45:50.771Z,101794.00
2022-11-05T08:48:19.116Z,101791.13
2022-11-05T08:50:48.073Z,101794.63
2022-11-05T08:53:15.488Z,101803.72
2022-11-05T08:55:42.511Z,101790.25
2022-11-05T08:58:17.664Z,101798.66
2022-11-05T09:00:46.071Z,101800.66
2022-11-05T09:03:13.200Z,101805.00
2022-11-05T09:05:40.827Z,101812.81
2022-11-05T09:08:18.282Z,101807.75
2022-11-05T09:10:46.166Z,101804.09
2022-11-05T09:13:18.339Z,101800.72
2022-11-05T09:15:45.889Z,101803.09
2022-11-05T09:18:14.193Z,101802.72
2022-11-05T09:20:40.812Z,101797.78
2022-11-05T09:23:08.423Z,101803.88
2022-11-05T09:25:35.122Z,101800.63
2022-11-05T09:28:16.446Z,101800.38
2022-11-05T09:30:45.437Z,101793.44
2022-11-05T09:33:12.064Z,101797.00
2022-11-05T09:35:40.036Z,101797.66
2022-11-05T09:38:07.699Z,101805.78
2022-11-05T09:40:57.946Z,101803.91
2022-11-05T09:43:44.368Z,101805.56
2022-11-05T09:46:26.286Z,101807.25
2022-11-05T09:48:58.375Z,101813.34
2022-11-05T09:51:24.715Z,101807.47
2022-11-05T09:53:53.345Z,101808.84
2022-11-05T09:56:29.513Z,101812.56
2022-11-05T09:59:16.877Z,101815.75
2022-11-05T10:01:45.611Z,101814.06
2022-11-05T10:04:21.024Z,101819.22
2022-11-05T10:07:01.860Z,101816.47
2022-11-05T10:09:46.300Z,101822.41
2022-11-05T10:12:20.945Z,101815.53
2022-11-05T10:14:56.871Z,101811.59
2022-11-05T10:17:27.278Z,101824.41
2022-11-05T10:19:58.253Z,101826.19
2022-11-05T10:22:24.938Z,101827.97
2022-11-05T10:24:52.489Z,101836.44
2022-11-05T10:27:25.339Z,101835.63
2022-11-05T10:29:51.961Z,101835.34
2022-11-05T10:32:39.392Z,101832.19
2022-11-05T10:35:08.097Z,101839.09
2022-11-05T10:37:40.691Z,101836.25
2022-11-05T10:40:22.575Z,101835.44
2022-11-05T10:43:00.800Z,101837.31
2022-11-05T10:45:50.387Z,101834.94
2022-11-05T10:48:32.513Z,101837.63
2022-11-05T10:50:58.997Z,101833.28
2022-11-05T10:53:35.552Z,101832.78
2022-11-05T10:56:02.641Z,101835.56
2022-11-05T10:58:31.393Z,101836.63
2022-11-05T11:00:57.700Z,101840.56
2022-11-05T11:03:42.973Z,101841.66
2022-11-05T11:06:32.188Z,101830.72
2022-11-05T11:09:01.809Z,101834.06
2022-11-05T11:11:39.224Z,101834.06
2022-11-05T11:14:18.077Z,101834.66
2022-11-05T11:16:46.640Z,101835.44
2022-11-05T11:19:34.804Z,101833.88
2022-11-05T11:22:04.171Z,101840.06
2022-11-05T11:24:37.249Z,101836.03
2022-11-05T11:27:09.320Z,101844.34
2022-11-05T11:29:41.995Z,101839.09
2022-11-05T11:32:18.638Z,101830.34
2022-11-05T11:34:48.944Z,101829.72
2022-11-05T11:37:41.883Z,101836.53
2022-11-05T11:40:23.954Z,101834.06
2022-11-05T11:42:57.321Z,101833.59
2022-11-05T11:45:32.517Z,101838.78
2022-11-05T11:48:04.204Z,101833.66
2022-11-05T11:50:35.284Z,101834.66
2022-11-05T11:53:29.217Z,101835.84
2022-11-05T11:55:55.536Z,101832.19
2022-11-05T11:58:23.837Z,101832.78
2022-11-05T12:01:03.782Z,101814.75
2022-11-05T12:03:46.728Z,101822.25
2022-11-05T12:06:27.496Z,101815.22
2022-11-05T12:09:09.544Z,101809.34
2022-11-05T12:11:41.678Z,101817.31
2022-11-05T12:14:32.454Z,101818.41
2022-11-05T12:17:23.078Z,101818.47
2022-11-05T12:20:13.532Z,101824.38
2022-11-05T12:22:58.210Z,101824.19
2022-11-05T12:25:30.594Z,101821.78
2022-11-05T12:28:28.326Z,101808.56
2022-11-05T12:31:23.840Z,101802.81
2022-11-05T12:34:08.919Z,101792.50
2022-11-05T12:37:06.539Z,101796.13
2022-11-05T12:39:43.618Z,101798.50
2022-11-05T12:42:47.776Z,101788.88
2022-11-05T12:45:45.594Z,101791.44
2022-11-05T12:48:20.865Z,101789.41
2022-11-05T12:50:59.273Z,101798.97
2022-11-05T12:54:04.744Z,101788.31
2022-11-05T12:56:43.434Z,101786.19
2022-11-05T12:59:22.176Z,101783.81
2022-11-05T13:02:02.419Z,101777.69
2022-11-05T13:04:50.515Z,101777.22
2022-11-05T13:07:27.629Z,101778.63
2022-11-05T13:10:01.427Z,101779.69
2022-11-05T13:12:33.014Z,101780.19
2022-11-05T13:15:04.937Z,101773.75
2022-11-05T13:17:51.246Z,101767.44
2022-11-05T13:20:31.343Z,101760.56
2022-11-05T13:23:06.763Z,101749.13
2022-11-05T13:25:38.564Z,101750.63
2022-11-05T13:28:10.830Z,101743.72
2022-11-05T13:30:43.166Z,101743.25
2022-11-05T13:33:17.806Z,101732.59
2022-11-05T13:36:15.924Z,101727.25
2022-11-05T13:38:59.765Z,101728.81
2022-11-05T13:41:47.812Z,101734.00
2022-11-05T13:44:52.026Z,101737.88
2022-11-05T13:47:27.259Z,101738.38
2022-11-05T13:50:27.701Z,101734.47
2022-11-05T13:53:14.997Z,101733.00
2022-11-05T13:56:06.278Z,101733.72
2022-11-05T13:58:51.259Z,101732.00
2022-11-05T14:01:37.121Z,101732.38
2022-11-05T14:04:04.109Z,101733.78
2022-11-05T14:06:36.417Z,101746.31
2022-11-05T14:09:08.576Z,101745.03
2022-11-05T14:11:42.685Z,101748.31
2022-11-05T14:14:18.521Z,101749.41
2022-11-05T14:16:52.645Z,101746.56
2022-11-05T14:19:18.881Z,101749.00
2022-11-05T14:21:46.236Z,101751.31
2022-11-05T14:24:22.272Z,101748.97
2022-11-05T14:27:00.493Z,101753.81
2022-11-05T14:29:47.537Z,101744.06
2022-11-05T14:32:45.489Z,101751.63
2022-11-05T14:35:17.802Z,101743.59
2022-11-05T14:37:53.715Z,101741.81
2022-11-05T14:40:44.698Z,101737.69
2022-11-05T14:43:14.338Z,101742.81
2022-11-05T14:45:53.693Z,101746.66
2022-11-05T14:48:43.874Z,101746.47
2022-11-05T14:51:33.117Z,101739.06
2022-11-05T14:54:35.570Z,101739.19
2022-11-05T14:57:02.655Z,101749.34
2022-11-05T14:59:28.926Z,101743.81
2022-11-05T15:02:01.445Z,101742.25
2022-11-05T15:04:42.531Z,101749.13
2022-11-05T15:07:08.940Z,101746.00
2022-11-05T15:09:41.009Z,101747.06
2022-11-05T15:12:21.932Z,101743.63
2022-11-05T15:14:57.437Z,101740.47
2022-11-05T15:17:29.878Z,101738.91
2022-11-05T15:20:07.856Z,101734.34
2022-11-05T15:22:38.109Z,101735.75
2022-11-05T15:25:14.178Z,101737.91
2022-11-05T15:28:17.234Z,101733.66
2022-11-05T15:31:19.234Z,101737.41
2022-11-05T15:33:47.625Z,101728.16
2022-11-05T15:36:30.387Z,101731.41
2022-11-05T15:39:27.518Z,101727.47
2022-11-05T15:41:44.657Z,101726.97
2022-11-05T15:44:29.061Z,101721.16
2022-11-05T15:47:27.333Z,101718.31
2022-11-05T15:49:56.953Z,101724.97
2022-11-05T15:52:31.133Z,101714.34
2022-11-05T15:55:08.322Z,101720.75
2022-11-05T15:57:39.912Z,101713.03
2022-11-05T16:00:14.808Z,101714.44
2022-11-05T16:02:41.454Z,101718.19
2022-11-05T16:05:13.098Z,101713.13
2022-11-05T16:07:46.526Z,101714.22
2022-11-05T16:10:23.125Z,101712.97
2022-11-05T16:12:49.763Z,101718.53
2022-11-05T16:15:19.883Z,101712.44
2022-11-05T16:17:52.573Z,101710.38
2022-11-05T16:20:32.149Z,101710.38
2022-11-05T16:23:01.575Z,101718.38
2022-11-05T16:25:34.794Z,101713.63
2022-11-05T16:28:01.754Z,101702.22
2022-11-05T16:30:28.742Z,101705.66
2022-11-05T16:33:03.664Z,101692.38
2022-11-05T16:35:30.102Z,101695.31
2022-11-05T16:37:56.414Z,101692.97
2022-11-05T16:40:25.263Z,101695.09
2022-11-05T16:42:53.740Z,101695.41
2022-11-05T16:45:23.795Z,101695.72
2022-11-05T16:47:51.058Z,101700.25
2022-11-05T16:50:31.832Z,101703.16
2022-11-05T16:52:58.195Z,101708.78
2022-11-05T16:55:24.490Z,101705.94
2022-11-05T16:57:54.202Z,101709.09
2022-11-05T17:00:21.621Z,101705.63
2022-11-05T17:02:48.416Z,101701.91
2022-11-05T17:05:19.693Z,101700.03
2022-11-05T17:07:46.418Z,101698.75
2022-11-05T17:10:13.206Z,101700.63
2022-11-05T17:12:39.587Z,101705.94
2022-11-05T17:15:19.163Z,101707.28
2022-11-05T17:17:45.813Z,101699.31
2022-11-05T17:20:32.407Z,101700.41
2022-11-05T17:23:02.047Z,101695.88
2022-11-05T17:25:28.750Z,101701.19
2022-11-05T17:27:55.515Z,101698.53
2022-11-05T17:30:22.072Z,101695.09
2022-11-05T17:32:48.550Z,101703.06
2022-11-05T17:35:15.143Z,101696.97
2022-11-05T17:37:41.832Z,101701.19
2022-11-05T17:40:13.625Z,101703.84
2022-11-05T17:42:39.977Z,101702.28
2022-11-05T17:45:07.015Z,101716.06
2022-11-05T17:47:33.326Z,101712.63
2022-11-05T17:49:59.640Z,101715.56
2022-11-05T17:52:27.620Z,101720.59
2022-11-05T17:54:54.060Z,101728.56
2022-11-05T17:57:20.455Z,101732.00
2022-11-05T17:59:46.770Z,101734.66
2022-11-05T18:02:13.493Z,101732.00
2022-11-05T18:04:40.392Z,101734.66
2022-11-05T18:07:07.182Z,101730.41
2022-11-05T18:09:33.854Z,101733.88
2022-11-05T18:12:00.239Z,101728.56
2022-11-05T18:14:26.575Z,101725.91
2022-11-05T18:16:55.243Z,101723.25
2022-11-05T18:19:21.682Z,101715.56
2022-11-05T18:21:47.982Z,101716.13
2022-11-05T18:24:14.310Z,101713.47
2022-11-05T18:26:40.659Z,101708.47
2022-11-05T18:29:06.976Z,101703.94
2022-11-05T18:31:33.277Z,101700.78
2022-11-05T18:34:00.069Z,101696.56
2022-11-05T18:36:29.482Z,101702.94
2022-11-05T18:38:58.112Z,101703.72
2022-11-05T18:41:24.543Z,101704.53
2022-11-05T18:43:51.255Z,101698.72
2022-11-05T18:46:42.995Z,101696.06
2022-11-05T18:49:04.604Z,101686.22
2022-11-05T18:51:31.478Z,101690.75
2022-11-05T18:53:58.361Z,101689.66
2022-11-05T18:56:24.757Z,101691.25
2022-11-05T18:59:14.723Z,101690.44
2022-11-05T19:01:40.574Z,101688.59
2022-11-05T19:04:06.995Z,101681.41
2022-11-05T19:06:34.189Z,101683.28
2022-11-05T19:09:00.885Z,101668.91
2022-11-05T19:11:27.401Z,101663.88
2022-11-05T19:13:54.030Z,101660.94
2022-11-05T19:16:25.538Z,101665.75
2022-11-05T19:18:52.253Z,101671.84
2022-11-05T19:21:21.616Z,101658.28
2022-11-05T19:23:48.620Z,101644.72
2022-11-05T19:26:28.659Z,101631.72
2022-11-05T19:28:58.670Z,101627.78
2022-11-05T19:31:25.305Z,101633.47
2022-11-05T19:33:52.189Z,101626.59
2022-11-05T19:36:20.598Z,101619.72
2022-11-05T19:38:49.522Z,101633.56
2022-11-05T19:41:18.268Z,101627.00
2022-11-05T19:43:45.185Z,101634.66
2022-11-05T19:46:17.982Z,101638.69
2022-11-05T19:48:45.447Z,101636.81
2022-11-05T19:51:15.818Z,101621.38
2022-11-05T19:53:42.709Z,101640.25
2022-11-05T19:56:13.063Z,101635.75
2022-11-05T19:58:39.702Z,101623.72
2022-11-05T20:01:06.364Z,101643.09
2022-11-05T20:03:32.767Z,101639.38
2022-11-05T20:06:04.329Z,101638.31
2022-11-05T20:08:30.841Z,101632.47
2022-11-05T20:10:57.625Z,101633.25
2022-11-05T20:13:24.566Z,101632.78
2022-11-05T20:15:51.066Z,101631.50
2022-11-05T20:18:17.604Z,101626.78
2022-11-05T20:20:44.660Z,101632.09
2022-11-05T20:23:11.318Z,101618.31
2022-11-05T20:25:37.688Z,101629.50
2022-11-05T20:28:04.892Z,101625.28
2022-11-05T20:30:31.286Z,101622.63
2022-11-05T20:32:58.158Z,101614.38
2022-11-05T20:35:24.745Z,101623.63
2022-11-05T20:37:53.902Z,101619.41
2022-11-05T20:40:20.699Z,101619.09
2022-11-05T20:42:47.001Z,101622.84
2022-11-05T20:45:13.529Z,101618.59
2022-11-05T20:47:39.854Z,101616.75
2022-11-05T20:50:06.975Z,101620.19
2022-11-05T20:52:33.450Z,101617.31
2022-11-05T20:55:01.076Z,101618.09
2022-11-05T20:57:27.453Z,101610.44
2022-11-05T20:59:53.790Z,101615.53
2022-11-05T21:02:20.277Z,101614.06
2022-11-05T21:04:47.446Z,101621.78
2022-11-05T21:07:13.752Z,101623.19
2022-11-05T21:09:40.093Z,101629.06
2022-11-05T21:12:12.326Z,101625.13
2022-11-05T21:14:39.923Z,101623.84
2022-11-05T21:17:09.870Z,101625.81
2022-11-05T21:19:36.354Z,101617.31
2022-11-05T21:22:03.860Z,101625.28
2022-11-05T21:24:31.169Z,101627.44
2022-11-05T21:26:57.542Z,101626.16
2022-11-05T21:29:23.847Z,101623.78
2022-11-05T21:31:50.759Z,101626.44
2022-11-05T21:34:17.853Z,101622.53
2022-11-05T21:36:44.417Z,101631.28
2022-11-05T21:39:13.755Z,101623.31
2022-11-05T21:41:40.312Z,101617.41
2022-11-05T21:44:06.614Z,101616.84
2022-11-05T21:46:33.165Z,101610.16
2022-11-05T21:48:59.486Z,101598.44
2022-11-05T21:51:44.474Z,101600.84
2022-11-05T21:54:29.595Z,101603.50
2022-11-05T21:57:14.401Z,101603.97
2022-11-05T21:59:51.289Z,101606.06
2022-11-05T22:02:21.091Z,101598.09
2022-11-05T22:04:52.769Z,101586.41
2022-11-05T22:07:22.284Z,101595.16
2022-11-05T22:09:48.777Z,101589.06
2022-11-05T22:12:15.624Z,101590.63
2022-11-05T22:14:42.389Z,101602.03
2022-11-05T22:17:09.711Z,101603.59
2022-11-05T22:19:36.458Z,101593.28
2022-11-05T22:22:05.088Z,101595.63
2022-11-05T22:24:32.046Z,101591.41
2022-11-05T22:27:00.310Z,101586.41
2022-11-05T22:29:27.344Z,101587.19
2022-11-05T22:31:55.066Z,101567.31
2022-11-05T22:34:21.631Z,101564.16
2022-11-05T22:36:48.001Z,101551.38
2022-11-05T22:39:14.570Z,101547.69
2022-11-05T22:41:41.576Z,101556.13
2022-11-05T22:44:10.182Z,101562.22
2022-11-05T22:46:37.796Z,101561.91
2022-11-05T22:49:04.314Z,101560.03
2022-11-05T22:51:32.874Z,101563.50
2022-11-05T22:54:00.142Z,101568.81
2022-11-05T22:56:28.989Z,101568.81
2022-11-05T22:58:55.914Z,101573.03
2022-11-05T23:01:23.449Z,101562.44
2022-11-05T23:03:51.833Z,101564.00
2022-11-05T23:06:40.447Z,101562.91
2022-11-05T23:09:43.957Z,101555.72
2022-11-05T23:12:32.269Z,101550.72
2022-11-05T23:15:00.603Z,101548.06
2022-11-05T23:17:46.158Z,101531.66
2022-11-05T23:20:34.510Z,101529.00
2022-11-05T23:23:19.389Z,101535.88
2022-11-05T23:25:46.193Z,101538.03
2022-11-05T23:28:13.143Z,101540.19
2022-11-05T23:31:02.512Z,101534.09
2022-11-05T23:33:33.148Z,101527.50
2022-11-05T23:36:18.464Z,101528.88
2022-11-05T23:38:44.793Z,101529.19
2022-11-05T23:41:29.748Z,101531.06
2022-11-05T23:44:14.992Z,101539.59
2022-11-05T23:46:59.562Z,101523.19
2022-11-05T23:49:26.130Z,101542.31
2022-11-05T23:51:52.480Z,101535.53
2022-11-05T23:54:18.789Z,101532.56
2022-11-05T23:56:45.752Z,101530.72
2022-11-05T23:59:12.047Z,101521.97
